KAQW/AQW METAR and TAF weather

Enter ICAO airport designator
Station Type Date Time Source
KAQW METAR 2020/08/15 09:52 UTC NOAA

KAQW 150952Z AUTO 00000KT 1/4SM FG VV002 14/13 A3007 RMK AO2 SLP180 T01390133


Station Type Date Time Source
KAQW Decoded METAR 2020/08/15 09:52 UTC NOAA

N ADAMS HARRIMAN-AND-WEST, MA, United States (KAQW) 42-42N 073-10W 201M
Aug 15, 2020 - 05:52 AM EDT / 2020.08.15 0952 UTC
Wind: Calm:0
Visibility: 1/4 mile(s):0
Sky conditions: obscured
Weather: fog
Temperature: 57.0 F (13.9 C)
Dew Point: 55.9 F (13.3 C)
Relative Humidity: 96%
Pressure (altimeter): 30.07 in. Hg (1018 hPa)
ob: KAQW 150952Z AUTO 00000KT 1/4SM FG VV002 14/13 A3007 RMK AO2 SLP180 T01390133
cycle: 10

Station Type Date Time Source
KAQW TAF UTC NOAA

Error!

Example: see airport list